Time;durP1;ratioP1;P1;durP2;ratioP2;P2;SDS_P1;SDS_P2;PMS_P1;PMS_P2;Temp;Humidity;BMP_temperature;BMP_pressure;BME280_temperature;BME280_humidity;BME280_pressure;Samples;Min_cycle;Max_cycle;Signal;HPM_P1;HPM_P2
2022/05/04 00:01:21;;;;;;;11.98;5.28;;;;;;;7.86;80.59;101790.38;5243400;28;20108;-64
2022/05/04 00:03:53;;;;;;;12.85;5.38;;;;;;;7.79;80.67;101787.19;5242843;28;20059;-64
2022/05/04 00:06:24;;;;;;;15.20;6.03;;;;;;;7.74;80.91;101791.00;5243056;28;20396;-65
2022/05/04 00:08:55;;;;;;;14.10;5.95;;;;;;;7.75;82.32;101784.78;5240791;28;20956;-64
2022/05/04 00:11:27;;;;;;;14.43;5.53;;;;;;;7.62;81.85;101792.47;5242009;28;20032;-64
2022/05/04 00:13:58;;;;;;;13.80;5.75;;;;;;;7.75;82.83;101782.13;5247740;28;20044;-65
2022/05/04 00:16:30;;;;;;;12.95;5.20;;;;;;;7.58;82.18;101791.75;5239255;28;20529;-64
2022/05/04 00:19:01;;;;;;;14.10;5.47;;;;;;;7.55;82.26;101791.06;5244390;28;20032;-64
2022/05/04 00:21:32;;;;;;;12.98;6.03;;;;;;;7.60;82.58;101794.34;5241495;28;20037;-64
2022/05/04 00:24:03;;;;;;;14.55;5.68;;;;;;;7.51;82.39;101798.31;5237531;28;20611;-64
2022/05/04 00:26:35;;;;;;;10.35;5.50;;;;;;;7.55;82.46;101794.56;5229499;28;20025;-64
2022/05/04 00:29:06;;;;;;;12.93;5.63;;;;;;;7.46;82.73;101795.03;5236148;28;20068;-64
2022/05/04 00:31:38;;;;;;;12.45;5.30;;;;;;;7.59;83.80;101790.84;5233934;28;20071;-64
2022/05/04 00:34:09;;;;;;;15.75;5.93;;;;;;;7.55;82.84;101791.06;5237562;28;20025;-64
2022/05/04 00:36:40;;;;;;;12.85;5.68;;;;;;;7.69;82.64;101783.28;5233723;28;20080;-64
2022/05/04 00:39:12;;;;;;;13.13;6.45;;;;;;;7.62;82.68;101796.00;5233605;28;20036;-64
2022/05/04 00:41:43;;;;;;;14.95;5.70;;;;;;;7.65;82.58;101790.53;5239187;28;20411;-64
2022/05/04 00:44:14;;;;;;;14.18;6.00;;;;;;;7.67;82.99;101790.47;5244282;28;20079;-64
2022/05/04 00:46:45;;;;;;;16.60;6.97;;;;;;;7.75;82.96;101790.09;5248274;28;20029;-64
2022/05/04 00:49:17;;;;;;;14.40;6.53;;;;;;;7.73;83.52;101787.50;5248594;28;20044;-64
2022/05/04 00:51:48;;;;;;;11.80;6.13;;;;;;;7.75;82.97;101780.31;5243983;28;20634;-64
2022/05/04 00:54:19;;;;;;;15.10;6.70;;;;;;;7.92;83.42;101782.13;5243274;28;20116;-64
2022/05/04 00:56:51;;;;;;;17.63;7.28;;;;;;;7.88;84.32;101780.56;5239369;28;20108;-64
2022/05/04 00:59:23;;;;;;;13.60;6.80;;;;;;;7.85;83.68;101781.56;5246335;28;20470;-64
2022/05/04 01:01:56;;;;;;;13.35;6.07;;;;;;;7.94;82.88;101780.25;5245854;28;20162;-65
2022/05/04 01:04:27;;;;;;;15.45;6.55;;;;;;;7.88;82.75;101779.69;5243475;28;20082;-64
2022/05/04 01:06:59;;;;;;;13.85;6.95;;;;;;;7.91;82.58;101782.22;5237812;28;20490;-65
2022/05/04 01:09:32;;;;;;;12.73;6.50;;;;;;;8.05;83.36;101777.03;5238801;28;20028;-64
2022/05/04 01:12:04;;;;;;;12.45;6.90;;;;;;;8.01;82.46;101771.00;5239878;28;20124;-64
2022/05/04 01:14:35;;;;;;;14.38;6.40;;;;;;;8.01;82.82;101780.78;5242241;28;20045;-65
2022/05/04 01:17:06;;;;;;;13.45;6.70;;;;;;;8.03;82.44;101781.56;5238645;28;20048;-64
2022/05/04 01:19:38;;;;;;;10.40;6.35;;;;;;;8.02;82.07;101786.03;5246439;28;20305;-64
2022/05/04 01:22:09;;;;;;;14.63;6.72;;;;;;;8.11;82.01;101775.88;5246121;28;20033;-64
2022/05/04 01:24:41;;;;;;;14.77;5.75;;;;;;;8.05;82.07;101777.91;5239405;28;20344;-64
2022/05/04 01:27:12;;;;;;;12.85;5.97;;;;;;;8.05;82.40;101780.59;5233357;28;20040;-65
2022/05/04 01:29:43;;;;;;;12.55;6.32;;;;;;;8.13;83.33;101777.53;5233983;28;20848;-64
2022/05/04 01:32:15;;;;;;;14.27;6.85;;;;;;;8.09;82.18;101783.91;5233523;28;20521;-64
2022/05/04 01:34:46;;;;;;;15.15;6.95;;;;;;;8.09;81.93;101777.75;5236728;28;20418;-65
2022/05/04 01:37:17;;;;;;;11.80;6.07;;;;;;;8.21;81.42;101774.47;5232655;28;20045;-65
2022/05/04 01:39:48;;;;;;;16.23;6.68;;;;;;;8.12;81.46;101782.91;5246366;28;20041;-65
2022/05/04 01:42:23;;;;;;;10.88;6.20;;;;;;;8.17;81.71;101778.19;5239417;28;20387;-64
2022/05/04 01:44:55;;;;;;;14.98;6.32;;;;;;;8.19;82.40;101779.00;5245604;28;20037;-64
2022/05/04 01:47:26;;;;;;;14.07;6.50;;;;;;;8.23;81.36;101775.25;5242759;28;20072;-64
2022/05/04 01:49:57;;;;;;;13.35;6.10;;;;;;;8.17;82.09;101778.19;5244970;28;20033;-64
2022/05/04 01:52:29;;;;;;;12.52;5.70;;;;;;;8.17;81.45;101776.44;5249708;28;20498;-64
2022/05/04 01:55:01;;;;;;;10.68;5.80;;;;;;;8.23;81.73;101776.09;5244638;28;20021;-65
2022/05/04 01:57:32;;;;;;;15.38;6.20;;;;;;;8.22;81.15;101774.38;5243425;28;20499;-65
2022/05/04 02:00:07;;;;;;;15.10;5.78;;;;;;;8.20;80.84;101770.09;5243022;28;20041;-65
2022/05/04 02:02:38;;;;;;;12.18;5.32;;;;;;;8.19;80.92;101773.69;5240947;28;20037;-65
2022/05/04 02:05:10;;;;;;;14.02;6.20;;;;;;;8.20;80.67;101775.41;5244482;28;20430;-64
2022/05/04 02:07:43;;;;;;;15.48;5.43;;;;;;;8.26;81.48;101772.41;5246781;28;20491;-64
2022/05/04 02:10:15;;;;;;;13.13;5.78;;;;;;;8.23;81.60;101769.94;5244253;28;20094;-64
2022/05/04 02:12:46;;;;;;;14.13;5.50;;;;;;;8.25;81.31;101768.91;5247365;28;20858;-64
2022/05/04 02:15:18;;;;;;;13.18;6.20;;;;;;;8.20;81.28;101764.75;5240593;28;20776;-65
2022/05/04 02:17:49;;;;;;;13.82;5.47;;;;;;;8.17;81.03;101771.13;5244767;28;20040;-65
2022/05/04 02:20:21;;;;;;;14.80;6.03;;;;;;;8.23;80.38;101761.97;5244803;28;20037;-65
2022/05/04 02:22:52;;;;;;;13.60;5.93;;;;;;;8.29;80.95;101766.97;5249825;28;20719;-64
2022/05/04 02:25:23;;;;;;;12.70;5.60;;;;;;;8.32;80.40;101764.16;5249190;28;20028;-64
2022/05/04 02:27:54;;;;;;;13.85;5.53;;;;;;;8.25;80.08;101763.59;5244824;28;20139;-64
2022/05/04 02:30:26;;;;;;;13.52;5.78;;;;;;;8.22;81.24;101760.22;5237948;28;20368;-64
2022/05/04 02:32:57;;;;;;;14.48;5.80;;;;;;;8.18;80.54;101764.00;5240472;28;20032;-65
2022/05/04 02:38:18;;;;;;;14.05;6.35;;;;;;;8.14;82.29;101751.81;5254719;28;20049;-64
2022/05/04 02:40:50;;;;;;;17.02;6.03;;;;;;;8.13;81.67;101758.94;5244660;28;20629;-65
2022/05/04 02:43:21;;;;;;;16.38;5.93;;;;;;;8.11;82.06;101766.13;5248408;28;20047;-64
2022/05/04 02:45:52;;;;;;;13.80;6.18;;;;;;;8.08;81.23;101758.28;5248738;28;20032;-64
2022/05/04 02:48:24;;;;;;;11.00;5.95;;;;;;;8.10;81.66;101758.22;5250069;28;20535;-64
2022/05/04 02:50:55;;;;;;;14.75;5.95;;;;;;;8.12;81.39;101754.53;5245470;28;20856;-65
2022/05/04 02:53:26;;;;;;;12.13;5.32;;;;;;;8.08;80.78;101755.63;5245072;28;20048;-64
2022/05/04 02:55:57;;;;;;;13.52;5.03;;;;;;;8.11;80.37;101755.50;5248515;28;20407;-64
2022/05/04 02:58:29;;;;;;;14.25;5.90;;;;;;;8.14;82.03;101750.00;5241874;28;20425;-64
2022/05/04 03:02:26;;;;;;;12.70;5.57;;;;;;;8.03;80.57;101747.03;5234993;28;20074;-65
2022/05/04 03:04:09;;;;;;;14.27;5.88;;;;;;;8.05;81.30;101740.72;5236550;28;20975;-64
2022/05/04 03:06:41;;;;;;;14.35;5.90;;;;;;;7.96;81.15;101751.81;5239803;28;20462;-64
2022/05/04 03:09:12;;;;;;;12.70;6.10;;;;;;;7.92;81.22;101747.59;5248534;28;20040;-64
2022/05/04 03:11:56;;;;;;;13.93;5.95;;;;;;;7.85;81.49;101746.19;5246777;28;20029;-64
2022/05/04 03:14:28;;;;;;;14.23;5.88;;;;;;;7.85;81.97;101748.84;5240658;28;20081;-64
2022/05/04 03:16:59;;;;;;;12.75;5.63;;;;;;;7.91;83.75;101739.69;5235780;28;20039;-64
2022/05/04 03:19:31;;;;;;;16.92;6.28;;;;;;;7.90;83.07;101740.63;5237855;28;20041;-64
2022/05/04 03:22:02;;;;;;;13.23;5.97;;;;;;;7.82;81.95;101730.38;5239307;28;20060;-64
2022/05/04 03:24:33;;;;;;;12.43;5.88;;;;;;;7.92;82.28;101738.75;5242687;28;20046;-64
2022/05/04 03:27:05;;;;;;;14.50;5.65;;;;;;;7.83;82.21;101737.44;5237915;28;20060;-64
2022/05/04 03:29:37;;;;;;;15.13;6.28;;;;;;;7.75;81.43;101734.31;5240785;28;20135;-64
2022/05/04 03:32:08;;;;;;;12.32;5.38;;;;;;;7.87;83.01;101733.66;5240978;28;20047;-64
2022/05/04 03:34:40;;;;;;;17.23;6.15;;;;;;;7.72;81.86;101731.78;5231016;28;20588;-64
2022/05/04 03:37:11;;;;;;;13.10;5.75;;;;;;;7.66;81.71;101739.13;5246549;28;20052;-64
2022/05/04 03:39:42;;;;;;;14.35;5.45;;;;;;;7.65;81.63;101745.38;5240552;28;20049;-64
2022/05/04 03:42:13;;;;;;;13.65;6.00;;;;;;;7.59;81.48;101744.81;5241969;28;20135;-64
2022/05/04 03:44:46;;;;;;;12.65;5.95;;;;;;;7.53;81.88;101747.78;5248034;28;20025;-64
2022/05/04 03:47:17;;;;;;;12.27;5.30;;;;;;;7.57;82.09;101744.03;5237736;28;20041;-64
2022/05/04 03:49:48;;;;;;;11.32;5.45;;;;;;;7.42;82.48;101743.88;5242892;28;21739;-64
2022/05/04 03:52:21;;;;;;;16.73;6.10;;;;;;;7.54;84.57;101739.75;5242156;28;20040;-64
2022/05/04 03:54:52;;;;;;;13.23;5.95;;;;;;;7.38;82.92;101744.06;5241751;28;20456;-64
2022/05/04 03:57:23;;;;;;;13.52;6.07;;;;;;;7.44;84.10;101741.09;5242129;28;20029;-64
2022/05/04 03:59:55;;;;;;;12.38;5.72;;;;;;;7.41;83.51;101743.94;5245257;28;20458;-64
2022/05/04 04:02:26;;;;;;;16.10;5.50;;;;;;;7.36;82.90;101736.19;5243538;28;20052;-64
2022/05/04 04:04:57;;;;;;;12.57;5.78;;;;;;;7.34;84.21;101742.50;5247342;28;20060;-64
2022/05/04 04:07:29;;;;;;;15.65;6.15;;;;;;;7.30;83.51;101741.78;5243338;28;20033;-64
2022/05/04 04:10:00;;;;;;;15.85;6.22;;;;;;;7.34;84.83;101739.84;5242823;28;20232;-64
2022/05/04 04:12:31;;;;;;;15.27;6.18;;;;;;;7.23;83.33;101743.03;5247547;28;20455;-64
2022/05/04 04:15:03;;;;;;;14.85;6.07;;;;;;;7.17;83.81;101744.19;5253121;28;20365;-64
2022/05/04 04:17:34;;;;;;;13.57;6.00;;;;;;;7.24;85.22;101740.28;5254947;28;20455;-64
2022/05/04 04:22:56;;;;;;;14.18;6.25;;;;;;;7.31;84.54;101740.03;5248301;28;20388;-64
2022/05/04 04:25:27;;;;;;;17.63;7.45;;;;;;;7.17;85.66;101738.00;5243610;28;20032;-64
2022/05/04 04:27:59;;;;;;;14.25;6.65;;;;;;;7.31;85.44;101740.03;5239544;28;20871;-64
2022/05/04 04:30:30;;;;;;;15.95;6.70;;;;;;;7.24;87.18;101734.97;5250972;28;20475;-64
2022/05/04 04:33:01;;;;;;;14.65;6.50;;;;;;;7.34;85.77;101740.69;5247360;28;21665;-64
2022/05/04 04:35:33;;;;;;;15.32;6.25;;;;;;;7.30;84.93;101748.91;5238958;28;20068;-64
2022/05/04 04:38:07;;;;;;;16.52;6.80;;;;;;;7.11;84.95;101747.13;5242534;28;20033;-64
2022/05/04 04:40:39;;;;;;;16.23;6.63;;;;;;;7.06;84.56;101749.16;5237038;28;20071;-65
2022/05/04 04:43:11;;;;;;;18.02;6.53;;;;;;;7.15;85.61;101750.50;5248926;28;20037;-64
2022/05/04 04:45:44;;;;;;;16.95;6.80;;;;;;;7.17;85.93;101753.94;5246892;28;20064;-64
2022/05/04 04:48:16;;;;;;;15.73;6.55;;;;;;;7.17;85.40;101752.16;5253389;28;20032;-64
2022/05/04 04:50:48;;;;;;;14.57;6.45;;;;;;;7.12;86.30;101746.19;5242533;28;20087;-65
2022/05/04 04:53:20;;;;;;;15.48;6.68;;;;;;;7.04;84.93;101751.00;5241949;28;20036;-64
2022/05/04 04:55:51;;;;;;;16.25;7.18;;;;;;;7.04;85.59;101748.38;5247626;28;20085;-64
2022/05/04 04:58:22;;;;;;;15.40;8.25;;;;;;;7.11;85.06;101739.16;5246891;28;20127;-64
2022/05/04 05:00:53;;;;;;;19.15;7.43;;;;;;;7.02;85.98;101740.47;5245256;28;20098;-64
2022/05/04 05:03:25;;;;;;;14.18;7.00;;;;;;;7.12;87.98;101742.69;5249671;28;20434;-64
2022/05/04 05:05:56;;;;;;;13.20;6.90;;;;;;;7.10;85.16;101745.41;5247921;28;20032;-64
2022/05/04 05:08:27;;;;;;;15.60;7.18;;;;;;;7.15;87.46;101745.19;5251400;28;20036;-64
2022/05/04 05:10:59;;;;;;;16.10;6.72;;;;;;;7.00;86.28;101745.00;5250983;28;20032;-64
2022/05/04 05:13:30;;;;;;;14.25;7.13;;;;;;;6.98;86.06;101752.16;5245711;28;20685;-64
2022/05/04 05:16:07;;;;;;;14.30;6.97;;;;;;;7.07;85.41;101758.81;5241670;28;21238;-64
2022/05/04 05:18:38;;;;;;;17.70;8.10;;;;;;;7.01;86.64;101756.44;5248697;28;20085;-64
2022/05/04 05:21:09;;;;;;;17.05;7.85;;;;;;;6.95;85.76;101759.41;5252493;28;20538;-64
2022/05/04 05:23:41;;;;;;;19.00;6.88;;;;;;;7.05;85.77;101764.19;5245727;28;21410;-64
2022/05/04 05:26:12;;;;;;;18.58;7.40;;;;;;;7.07;85.56;101756.16;5250741;28;20138;-64
2022/05/04 05:28:43;;;;;;;15.85;6.57;;;;;;;7.10;86.17;101761.34;5241273;28;20486;-64
2022/05/04 05:31:14;;;;;;;17.00;6.85;;;;;;;7.06;84.95;101757.09;5244892;28;20130;-64
2022/05/04 05:33:46;;;;;;;24.27;7.53;;;;;;;7.05;85.57;101752.72;5245490;28;20143;-64
2022/05/04 05:36:17;;;;;;;19.10;7.15;;;;;;;7.02;84.92;101751.09;5247299;28;20068;-64
2022/05/04 05:38:49;;;;;;;14.70;6.63;;;;;;;7.01;85.02;101759.09;5241163;28;20060;-64
2022/05/04 05:41:23;;;;;;;13.15;6.57;;;;;;;7.03;85.30;101759.91;5247836;28;20544;-64
2022/05/04 05:43:54;;;;;;;13.68;6.55;;;;;;;7.02;85.56;101750.22;5246737;28;20040;-64
2022/05/04 05:46:25;;;;;;;15.40;7.75;;;;;;;7.03;85.03;101759.91;5243540;28;20475;-64
2022/05/04 05:48:57;;;;;;;18.35;7.22;;;;;;;7.21;85.81;101753.72;5247593;28;20040;-64
2022/05/04 05:51:28;;;;;;;13.32;6.60;;;;;;;7.17;85.36;101751.28;5250883;28;20090;-64
2022/05/04 05:53:59;;;;;;;14.80;6.57;;;;;;;7.18;84.85;101760.97;5247865;28;20103;-65
2022/05/04 05:56:31;;;;;;;14.43;6.60;;;;;;;7.19;85.65;101755.59;5246611;28;20033;-65
2022/05/04 05:59:03;;;;;;;17.77;6.65;;;;;;;7.25;85.94;101765.06;5245403;28;20131;-64
2022/05/04 06:01:35;;;;;;;17.40;7.20;;;;;;;7.24;84.12;101761.53;5245039;28;20394;-64
2022/05/04 06:04:06;;;;;;;17.23;6.97;;;;;;;7.36;86.89;101764.53;5237682;28;20033;-64
2022/05/04 06:06:37;;;;;;;22.48;6.80;;;;;;;7.36;84.43;101770.69;5235873;28;20025;-64
2022/05/04 06:09:08;;;;;;;20.73;6.68;;;;;;;7.44;84.61;101767.66;5240954;28;20076;-64
2022/05/04 06:11:40;;;;;;;15.32;6.60;;;;;;;7.55;86.31;101773.31;5240245;28;20447;-64
2022/05/04 06:14:11;;;;;;;13.32;7.20;;;;;;;7.65;85.00;101769.28;5244589;28;20052;-64
2022/05/04 06:16:42;;;;;;;17.10;6.32;;;;;;;7.63;83.63;101770.28;5243140;28;20508;-64
2022/05/04 06:19:14;;;;;;;16.52;6.45;;;;;;;7.70;84.23;101777.03;5244310;28;20341;-64
2022/05/04 06:21:45;;;;;;;13.40;6.88;;;;;;;7.67;81.64;101779.84;5244718;28;20042;-65
2022/05/04 06:24:16;;;;;;;18.65;7.38;;;;;;;7.69;82.54;101775.31;5247742;28;20040;-64
2022/05/04 06:26:48;;;;;;;15.00;6.70;;;;;;;7.77;82.30;101781.09;5252071;28;20113;-64
2022/05/04 06:29:19;;;;;;;20.13;6.82;;;;;;;7.85;81.86;101775.41;5244409;28;20043;-64
2022/05/04 06:34:40;;;;;;;15.57;6.20;;;;;;;8.02;80.67;101777.22;5245078;28;20041;-64
2022/05/04 06:37:11;;;;;;;17.20;7.32;;;;;;;8.12;80.68;101780.25;5242934;28;20036;-64
2022/05/04 06:39:43;;;;;;;14.80;6.30;;;;;;;8.26;81.07;101780.41;5249370;28;20056;-64
2022/05/04 06:42:16;;;;;;;14.98;6.22;;;;;;;8.39;80.54;101780.63;5245291;28;20478;-65
2022/05/04 06:44:47;;;;;;;16.02;6.45;;;;;;;8.53;79.42;101779.94;5243738;28;20041;-65
2022/05/04 06:47:18;;;;;;;14.63;6.60;;;;;;;8.76;78.44;101787.56;5243253;28;20044;-65
2022/05/04 06:49:49;;;;;;;19.40;6.45;;;;;;;8.87;77.11;101792.28;5242259;28;20021;-65
2022/05/04 06:52:24;;;;;;;16.13;6.15;;;;;;;8.96;77.78;101780.28;5245303;28;20035;-65
2022/05/04 06:54:55;;;;;;;12.50;6.07;;;;;;;9.14;75.63;101791.72;5250767;28;20056;-65
2022/05/04 06:57:26;;;;;;;13.75;6.20;;;;;;;9.17;74.54;101783.56;5249003;28;20685;-64
2022/05/04 06:59:59;;;;;;;16.23;6.13;;;;;;;9.33;74.74;101788.91;5248486;28;20367;-65
2022/05/04 07:02:35;;;;;;;15.90;6.28;;;;;;;9.52;74.55;101781.56;5249436;28;20106;-65
2022/05/04 07:05:06;;;;;;;14.95;6.20;;;;;;;9.56;76.70;101779.59;5244038;28;20027;-65
2022/05/04 07:07:38;;;;;;;13.18;6.22;;;;;;;9.51;73.45;101774.53;5249965;28;20466;-65
2022/05/04 07:10:09;;;;;;;14.77;6.20;;;;;;;9.58;76.31;101780.38;5259562;28;20115;-65
2022/05/04 07:12:40;;;;;;;16.25;6.63;;;;;;;9.60;73.46;101779.31;5244448;28;20045;-65
2022/05/04 07:15:12;;;;;;;15.43;5.65;;;;;;;9.66;73.84;101782.59;5248503;28;20049;-65
2022/05/04 07:17:43;;;;;;;12.45;5.70;;;;;;;9.78;74.39;101779.22;5247090;28;20025;-65
2022/05/04 07:20:14;;;;;;;13.88;5.80;;;;;;;9.83;72.91;101782.47;5245378;28;20482;-65
2022/05/04 07:22:45;;;;;;;13.20;5.53;;;;;;;9.79;72.12;101779.13;5241977;28;20033;-65
2022/05/04 07:25:17;;;;;;;13.93;5.80;;;;;;;9.98;72.13;101772.72;5250670;28;20116;-65
2022/05/04 07:27:48;;;;;;;12.75;5.30;;;;;;;10.06;71.84;101765.13;5250758;28;20489;-64
2022/05/04 07:30:20;;;;;;;14.15;6.38;;;;;;;10.09;71.22;101770.28;5253367;28;20033;-65
2022/05/04 07:32:51;;;;;;;14.80;6.05;;;;;;;10.15;70.36;101761.91;5246989;28;20130;-64
2022/05/04 07:35:22;;;;;;;11.50;5.40;;;;;;;10.20;69.88;101772.28;5253783;28;20086;-65
2022/05/04 07:37:53;;;;;;;13.80;5.45;;;;;;;10.30;68.94;101772.63;5252354;28;20444;-65
2022/05/04 07:43:14;;;;;;;12.50;5.85;;;;;;;10.34;67.99;101777.69;5254657;28;20037;-65
2022/05/04 07:45:46;;;;;;;15.73;6.43;;;;;;;10.50;68.57;101780.28;5250541;28;20033;-65
2022/05/04 07:48:17;;;;;;;13.38;6.00;;;;;;;10.55;67.48;101780.00;5249024;28;20495;-65
2022/05/04 07:50:48;;;;;;;12.30;6.43;;;;;;;10.45;68.74;101782.38;5258552;28;20044;-65
2022/05/04 07:53:20;;;;;;;13.88;6.30;;;;;;;10.56;68.98;101782.56;5254881;28;20028;-65
2022/05/04 07:55:51;;;;;;;14.10;6.10;;;;;;;10.64;67.91;101778.56;5251068;28;20032;-65
2022/05/04 07:58:22;;;;;;;15.75;6.40;;;;;;;10.69;67.02;101782.66;5256290;28;20044;-65
2022/05/04 08:06:33;;;;;;;15.48;6.60;;;;;;;11.01;67.17;101782.47;5259510;28;20049;-65
2022/05/04 08:09:05;;;;;;;16.40;6.80;;;;;;;11.07;66.09;101781.22;5246695;28;20061;-65
2022/05/04 08:11:36;;;;;;;16.30;7.07;;;;;;;11.28;65.61;101787.88;5257185;28;20036;-65
2022/05/04 08:14:08;;;;;;;14.98;6.72;;;;;;;11.32;67.64;101783.19;5245511;28;20057;-65
2022/05/04 08:16:40;;;;;;;13.38;6.72;;;;;;;11.40;65.04;101786.22;5249562;28;20035;-65
2022/05/04 08:19:11;;;;;;;13.43;6.82;;;;;;;11.50;64.39;101789.13;5244358;28;20028;-62
2022/05/04 08:21:43;;;;;;;11.32;6.35;;;;;;;11.38;64.20;101782.78;5254234;28;20666;-64
2022/05/04 08:24:14;;;;;;;13.18;7.18;;;;;;;11.46;65.54;101780.47;5256448;28;20539;-65
2022/05/04 08:26:45;;;;;;;14.50;7.57;;;;;;;11.51;63.78;101786.38;5255087;28;20391;-64
2022/05/04 08:29:17;;;;;;;15.80;7.35;;;;;;;11.50;65.58;101784.63;5251088;28;20369;-64
2022/05/04 08:31:48;;;;;;;15.23;7.03;;;;;;;11.55;64.65;101779.00;5249572;28;20124;-64
2022/05/04 08:34:19;;;;;;;13.55;6.43;;;;;;;11.54;64.00;101785.31;5254147;28;20033;-62
2022/05/04 08:36:51;;;;;;;12.43;7.22;;;;;;;11.66;63.97;101791.66;5250240;28;20030;-63
2022/05/04 08:39:22;;;;;;;14.25;7.15;;;;;;;11.63;63.57;101789.19;5255727;28;20037;-65
2022/05/04 08:41:54;;;;;;;10.32;6.47;;;;;;;11.62;64.28;101787.47;5269301;28;20038;-65
2022/05/04 08:44:25;;;;;;;13.63;7.28;;;;;;;11.71;63.82;101786.88;5250916;28;20112;-65
2022/05/04 08:46:59;;;;;;;15.15;7.00;;;;;;;11.85;63.61;101786.81;5254651;28;20139;-64
2022/05/04 08:49:32;;;;;;;15.00;7.85;;;;;;;12.00;62.31;101786.78;5247868;28;20045;-65
2022/05/04 08:52:04;;;;;;;13.60;7.85;;;;;;;11.88;60.96;101777.72;5251847;28;20047;-64
2022/05/04 08:54:35;;;;;;;12.63;7.65;;;;;;;11.68;62.95;101779.91;5247599;28;20033;-65
2022/05/04 08:57:07;;;;;;;14.65;7.45;;;;;;;11.75;63.20;101777.69;5257653;28;20025;-65
2022/05/04 08:59:41;;;;;;;12.05;6.88;;;;;;;11.81;63.69;101779.94;5245806;28;20056;-65
2022/05/04 09:02:13;;;;;;;13.18;7.05;;;;;;;11.89;61.41;101780.34;5246244;28;20033;-64
2022/05/04 09:04:44;;;;;;;15.10;7.63;;;;;;;11.77;60.58;101787.34;5246991;28;20029;-65
2022/05/04 09:07:23;;;;;;;13.82;6.80;;;;;;;11.84;61.25;101776.22;5250089;28;20052;-64
2022/05/04 09:09:55;;;;;;;12.10;7.47;;;;;;;11.75;63.74;101788.38;5256535;28;20028;-65
2022/05/04 09:12:33;;;;;;;16.55;7.38;;;;;;;11.99;63.28;101772.56;5256084;28;20060;-65
2022/05/04 09:15:16;;;;;;;14.65;7.53;;;;;;;11.92;60.30;101780.13;5264478;28;20572;-65
2022/05/04 09:18:15;;;;;;;13.75;7.28;;;;;;;12.02;61.42;101768.81;5244470;28;20033;-64
2022/05/04 09:20:55;;;;;;;15.10;6.93;;;;;;;12.04;60.09;101766.88;5255815;28;20033;-64
2022/05/04 09:23:29;;;;;;;12.90;7.22;;;;;;;12.28;60.62;101769.72;5252256;28;20091;-65
2022/05/04 09:26:02;;;;;;;15.40;7.63;;;;;;;12.22;61.93;101762.09;5249092;28;20017;-65
2022/05/04 09:28:34;;;;;;;13.25;7.03;;;;;;;12.42;59.60;101764.25;5255290;28;20036;-65
2022/05/04 09:31:08;;;;;;;14.02;7.50;;;;;;;12.48;60.41;101762.97;5252956;28;20032;-65
2022/05/04 09:33:40;;;;;;;20.40;8.05;;;;;;;12.49;60.42;101770.03;5251535;28;20028;-65
2022/05/04 09:36:13;;;;;;;13.88;8.15;;;;;;;12.44;59.21;101759.63;5250849;28;20364;-65
2022/05/04 09:47:20;;;;;;;11.95;7.30;;;;;;;12.81;59.17;101757.06;5254374;28;20077;-64
2022/05/04 09:50:02;;;;;;;13.23;7.57;;;;;;;12.88;58.77;101757.47;5256092;28;20090;-65
2022/05/04 09:52:48;;;;;;;14.43;8.10;;;;;;;12.86;59.29;101756.72;5250955;28;20036;-65
2022/05/04 09:55:24;;;;;;;12.88;7.82;;;;;;;13.09;57.44;101755.91;5255877;28;20068;-65
2022/05/04 09:57:56;;;;;;;14.73;7.35;;;;;;;13.16;57.40;101748.28;5256396;28;20060;-65
2022/05/04 10:00:28;;;;;;;17.25;8.05;;;;;;;13.28;57.78;101747.38;5254642;28;20032;-65
2022/05/04 10:03:00;;;;;;;12.23;7.50;;;;;;;13.32;58.70;101740.00;5251281;28;20103;-65
2022/05/04 10:05:33;;;;;;;13.73;7.75;;;;;;;13.15;55.77;101746.56;5257806;28;20025;-65
2022/05/04 10:08:05;;;;;;;14.63;7.80;;;;;;;13.38;56.25;101741.38;5254208;28;20035;-65
2022/05/04 10:10:37;;;;;;;16.70;7.57;;;;;;;13.30;57.93;101742.78;5252716;28;20029;-65
2022/05/04 10:13:09;;;;;;;15.18;7.70;;;;;;;13.24;57.66;101747.72;5256355;28;20036;-65
2022/05/04 10:15:41;;;;;;;12.55;7.28;;;;;;;13.28;58.20;101750.06;5246825;28;20804;-65
2022/05/04 10:18:20;;;;;;;14.07;7.30;;;;;;;13.43;56.75;101739.22;5256410;28;20037;-65
2022/05/04 10:21:02;;;;;;;12.77;6.93;;;;;;;13.43;55.23;101748.09;5249991;28;20037;-65
2022/05/04 10:23:46;;;;;;;13.63;7.00;;;;;;;13.51;55.10;101743.03;5254129;28;20521;-65
2022/05/04 10:26:37;;;;;;;11.18;6.50;;;;;;;13.55;54.21;101745.50;5246755;28;20025;-65
2022/05/04 10:32:48;;;;;;;10.73;6.80;;;;;;;13.59;56.37;101746.97;5248181;28;20044;-65
2022/05/04 10:35:20;;;;;;;15.45;7.68;;;;;;;13.86;54.55;101735.97;5240714;28;20142;-65
2022/05/04 10:37:57;;;;;;;11.98;6.75;;;;;;;14.05;54.45;101735.41;5255390;28;20025;-65
2022/05/04 10:40:34;;;;;;;14.13;7.15;;;;;;;14.14;53.71;101733.88;5249858;28;20033;-65
2022/05/04 10:43:17;;;;;;;14.38;8.30;;;;;;;13.85;52.57;101739.66;5256475;28;20111;-65
2022/05/04 10:45:49;;;;;;;12.88;7.78;;;;;;;13.82;53.96;101739.88;5253926;28;20029;-65
2022/05/04 10:48:20;;;;;;;14.48;7.93;;;;;;;13.90;55.15;101738.31;5255468;28;20368;-65
2022/05/04 10:51:09;;;;;;;11.90;7.13;;;;;;;14.12;53.11;101739.34;5246431;28;20025;-65
2022/05/04 10:53:47;;;;;;;13.30;6.80;;;;;;;14.06;54.29;101737.16;5247404;28;20041;-66
2022/05/04 10:56:20;;;;;;;12.85;6.70;;;;;;;14.23;54.43;101735.81;5239045;28;20885;-65
2022/05/04 10:58:55;;;;;;;13.35;6.53;;;;;;;14.22;53.36;101726.91;5254032;28;20029;-65
2022/05/04 11:01:30;;;;;;;11.88;7.38;;;;;;;14.26;53.25;101722.16;5251802;28;20167;-65
2022/05/04 11:04:11;;;;;;;12.32;6.97;;;;;;;14.43;53.16;101720.84;5247845;28;20020;-65
2022/05/04 11:06:50;;;;;;;15.48;7.53;;;;;;;14.36;52.52;101717.78;5256703;28;20489;-65
2022/05/04 11:09:24;;;;;;;15.48;8.43;;;;;;;14.68;52.68;101728.69;5253161;28;20033;-65
2022/05/04 11:11:56;;;;;;;;;;;;;;;14.74;53.62;101729.19;5251862;28;20020;-65
2022/05/04 11:14:27;;;;;;;10.80;7.18;;;;;;;14.72;51.38;101720.41;5250718;28;19916;-65
2022/05/04 11:16:58;;;;;;;15.68;8.18;;;;;;;14.95;52.30;101723.91;5244900;28;20029;-65
2022/05/04 11:19:32;;;;;;;15.85;8.55;;;;;;;14.76;51.69;101727.22;5246810;28;20028;-65
2022/05/04 11:22:03;;;;;;;16.67;8.10;;;;;;;14.61;52.56;101721.25;5245048;28;20387;-65
2022/05/04 11:24:35;;;;;;;15.50;7.75;;;;;;;14.99;51.65;101717.31;5255796;28;20487;-65
2022/05/04 11:27:06;;;;;;;12.95;7.97;;;;;;;14.94;53.21;101711.44;5251909;28;20028;-65
2022/05/04 11:29:38;;;;;;;14.07;8.27;;;;;;;14.87;52.40;101711.09;5251612;28;20032;-65
2022/05/04 11:32:13;;;;;;;14.68;7.47;;;;;;;14.99;51.52;101706.56;5250545;28;20025;-65
2022/05/04 11:34:45;;;;;;;12.30;7.30;;;;;;;15.13;53.07;101702.72;5252752;28;20045;-65
2022/05/04 11:37:16;;;;;;;13.77;7.47;;;;;;;15.29;52.13;101703.19;5253887;28;20029;-65
2022/05/04 11:39:47;;;;;;;12.75;7.63;;;;;;;15.26;51.41;101701.63;5254189;28;20044;-66
2022/05/04 11:42:19;;;;;;;15.02;7.65;;;;;;;15.35;50.53;101693.75;5253490;28;20021;-65
2022/05/04 11:44:54;;;;;;;14.35;7.70;;;;;;;15.46;49.06;101702.63;5252025;28;20030;-66
2022/05/04 11:47:26;;;;;;;16.58;7.93;;;;;;;15.29;50.58;101695.13;5253289;28;20025;-65
2022/05/04 11:49:57;;;;;;;13.88;7.60;;;;;;;15.57;50.66;101692.81;5252131;28;20028;-66
2022/05/04 11:52:28;;;;;;;14.63;7.70;;;;;;;15.58;49.99;101689.16;5247789;28;20061;-66
2022/05/04 11:55:03;;;;;;;14.15;8.43;;;;;;;15.61;49.93;101696.94;5246055;28;20033;-65
2022/05/04 11:57:42;;;;;;;16.92;8.40;;;;;;;15.52;50.19;101681.59;5254064;28;20025;-65
2022/05/04 12:00:17;;;;;;;11.55;7.63;;;;;;;15.51;48.11;101679.88;5252141;28;20123;-66
2022/05/04 12:02:49;;;;;;;14.02;7.25;;;;;;;15.56;47.68;101672.28;5254835;28;20029;-65
2022/05/04 12:05:20;;;;;;;14.05;7.00;;;;;;;15.55;48.47;101675.94;5253629;28;20885;-66
2022/05/04 12:07:52;;;;;;;11.68;7.20;;;;;;;15.69;46.82;101676.47;5254941;28;20040;-65
2022/05/04 12:10:23;;;;;;;14.75;7.07;;;;;;;15.85;48.64;101667.97;5252984;28;20037;-66
2022/05/04 12:12:56;;;;;;;14.60;7.60;;;;;;;15.84;49.30;101668.13;5246031;28;20021;-65
2022/05/04 12:15:28;;;;;;;13.38;6.93;;;;;;;15.90;48.33;101664.03;5251436;28;20119;-66